Time;durP1;ratioP1;P1;durP2;ratioP2;P2;SDS_P1;SDS_P2;PMS_P1;PMS_P2;Temp;Humidity;BMP_temperature;BMP_pressure;BME280_temperature;BME280_humidity;BME280_pressure;Samples;Min_cycle;Max_cycle;Signal;HPM_P1;HPM_P2
2023/04/27 00:01:14;;;;;;;9.85;5.47;;;5.00;99.90;;;;;;5071778;28;20085;-77
2023/04/27 00:03:40;;;;;;;10.82;5.35;;;5.00;99.90;;;;;;5069251;28;20035;-77
2023/04/27 00:06:07;;;;;;;11.27;5.95;;;5.40;99.90;;;;;;5082960;28;20040;-76
2023/04/27 00:08:34;;;;;;;7.78;4.97;;;5.10;99.90;;;;;;5084826;28;20111;-75
2023/04/27 00:11:00;;;;;;;7.82;5.85;;;5.30;99.90;;;;;;5068173;28;20043;-79
2023/04/27 00:13:25;;;;;;;7.85;5.93;;;5.10;99.90;;;;;;5047256;28;20040;-77
2023/04/27 00:15:51;;;;;;;8.60;5.75;;;5.10;99.90;;;;;;5082965;28;20039;-73
2023/04/27 00:18:18;;;;;;;8.85;6.25;;;5.40;99.90;;;;;;5064713;28;20044;-80
2023/04/27 00:20:43;;;;;;;10.48;6.63;;;5.50;99.90;;;;;;5063773;28;20091;-78
2023/04/27 00:23:09;;;;;;;10.98;7.05;;;5.50;99.90;;;;;;5063241;28;20484;-75
2023/04/27 00:25:35;;;;;;;10.85;7.07;;;5.60;99.90;;;;;;5068677;28;20086;-77
2023/04/27 00:28:01;;;;;;;11.68;7.03;;;5.60;99.90;;;;;;5080648;28;20633;-80
2023/04/27 00:30:27;;;;;;;8.23;5.85;;;5.30;99.90;;;;;;5082670;28;20040;-76
2023/04/27 00:32:52;;;;;;;7.85;5.50;;;5.70;99.90;;;;;;5064300;28;20040;-79
2023/04/27 00:35:18;;;;;;;7.78;5.07;;;5.40;99.90;;;;;;5057713;28;20071;-77
2023/04/27 00:37:44;;;;;;;10.23;5.25;;;5.90;99.90;;;;;;5066191;28;20043;-79
2023/04/27 00:40:10;;;;;;;6.07;3.95;;;6.10;99.90;;;;;;5060231;28;20044;-76
2023/04/27 00:42:36;;;;;;;4.55;2.90;;;6.10;99.90;;;;;;5083141;28;20044;-78
2023/04/27 00:45:04;;;;;;;5.93;3.03;;;6.20;99.90;;;;;;5082554;28;20125;-76
2023/04/27 00:47:29;;;;;;;4.50;2.60;;;6.40;99.90;;;;;;5067965;28;20072;-78
2023/04/27 00:49:55;;;;;;;3.60;2.65;;;6.50;99.90;;;;;;5083297;28;20573;-77
2023/04/27 00:52:21;;;;;;;5.68;2.70;;;6.30;99.90;;;;;;5047956;28;20132;-76
2023/04/27 00:54:51;;;;;;;5.47;2.47;;;6.30;99.90;;;;;;5086229;28;20047;-75
2023/04/27 00:57:17;;;;;;;3.80;2.40;;;6.40;99.90;;;;;;5068683;28;20040;-78
2023/04/27 00:59:43;;;;;;;3.33;2.80;;;6.40;99.90;;;;;;5063898;28;20053;-75
2023/04/27 01:02:10;;;;;;;4.75;2.78;;;6.20;99.90;;;;;;5076384;28;20507;-77
2023/04/27 01:04:36;;;;;;;2.90;2.42;;;6.00;99.90;;;;;;5062203;28;20049;-77
2023/04/27 01:07:02;;;;;;;3.65;2.65;;;5.90;99.90;;;;;;5079695;28;20044;-77
2023/04/27 01:09:27;;;;;;;3.13;2.58;;;6.00;99.90;;;;;;5082048;28;20467;-80
2023/04/27 01:11:53;;;;;;;4.68;2.30;;;5.70;99.90;;;;;;5070299;28;20066;-74
2023/04/27 01:14:19;;;;;;;3.92;2.35;;;5.70;99.90;;;;;;5048185;28;20105;-82
2023/04/27 01:16:45;;;;;;;2.47;2.00;;;5.70;99.90;;;;;;5069852;28;20428;-80
2023/04/27 01:19:11;;;;;;;4.72;2.13;;;5.50;99.90;;;;;;5068085;28;20127;-80
2023/04/27 01:21:36;;;;;;;9.43;2.42;;;5.40;99.90;;;;;;5085843;28;20094;-75
2023/04/27 01:24:07;;;;;;;3.33;2.72;;;5.80;99.90;;;;;;5091466;28;22209;-82
2023/04/27 01:26:33;;;;;;;3.63;2.90;;;5.80;99.90;;;;;;5081908;28;20560;-76
2023/04/27 01:28:59;;;;;;;2.92;2.45;;;5.50;99.90;;;;;;5087655;28;20042;-76
2023/04/27 01:31:24;;;;;;;3.00;2.45;;;5.60;99.90;;;;;;5116306;27;20039;-74
2023/04/27 01:33:50;;;;;;;4.57;2.72;;;5.80;99.90;;;;;;5078535;28;20036;-77
2023/04/27 01:36:16;;;;;;;3.10;2.33;;;5.80;99.90;;;;;;5078440;28;20098;-77
2023/04/27 01:38:42;;;;;;;5.10;3.28;;;5.50;99.90;;;;;;5061546;28;20036;-75
2023/04/27 01:41:08;;;;;;;6.47;3.50;;;5.50;99.90;;;;;;5068003;28;20036;-81
2023/04/27 01:43:36;;;;;;;6.15;4.00;;;5.60;99.90;;;;;;5050009;28;20028;-78
2023/04/27 01:46:10;;;;;;;5.80;4.50;;;5.70;99.90;;;;;;5056589;28;20043;-77
2023/04/27 01:48:36;;;;;;;6.90;4.78;;;5.60;99.90;;;;;;5073166;28;20040;-76
2023/04/27 01:51:02;;;;;;;6.53;4.97;;;5.60;99.90;;;;;;5058299;28;20032;-75
2023/04/27 01:53:28;;;;;;;8.80;5.75;;;5.40;99.90;;;;;;5075731;28;20051;-76
2023/04/27 01:55:54;;;;;;;11.95;5.95;;;5.50;99.90;;;;;;5095864;28;20032;-76
2023/04/27 01:58:20;;;;;;;11.45;6.32;;;5.70;99.90;;;;;;5065481;28;20067;-76
2023/04/27 02:00:45;;;;;;;12.68;6.70;;;5.40;99.90;;;;;;5057968;28;20135;-76
2023/04/27 02:03:11;;;;;;;12.38;8.23;;;5.50;99.90;;;;;;5076981;28;20049;-76
2023/04/27 02:05:36;;;;;;;13.68;9.02;;;5.20;99.90;;;;;;5055695;28;20040;-79
2023/04/27 02:08:02;;;;;;;11.63;8.52;;;5.30;99.90;;;;;;5091632;28;20044;-78
2023/04/27 02:10:28;;;;;;;15.90;9.48;;;5.30;99.90;;;;;;5093921;28;20043;-77
2023/04/27 02:12:54;;;;;;;15.38;9.27;;;5.50;99.90;;;;;;5075429;28;20058;-80
2023/04/27 02:15:19;;;;;;;15.98;10.60;;;5.20;99.90;;;;;;5061108;28;20055;-78
2023/04/27 02:17:45;;;;;;;15.88;10.43;;;5.40;99.90;;;;;;5044407;28;20044;-77
2023/04/27 02:20:11;;;;;;;15.77;11.70;;;5.00;99.90;;;;;;5081216;28;20046;-76
2023/04/27 02:22:42;;;;;;;21.45;13.55;;;5.20;99.90;;;;;;5088697;28;20055;-80
2023/04/27 02:25:08;;;;;;;19.30;13.25;;;5.30;99.90;;;;;;5083075;28;20075;-75
2023/04/27 02:27:40;;;;;;;20.85;11.88;;;5.30;99.90;;;;;;5083499;28;20036;-79
2023/04/27 02:30:24;;;;;;;13.95;9.82;;;5.20;99.90;;;;;;5086533;28;20055;-79
2023/04/27 02:32:49;;;;;;;12.75;8.68;;;5.20;99.90;;;;;;5101277;28;20035;-75
2023/04/27 02:35:15;;;;;;;11.57;8.75;;;5.30;99.90;;;;;;5059633;28;20093;-76
2023/04/27 02:37:41;;;;;;;10.35;7.32;;;4.80;99.90;;;;;;5052239;28;20032;-82
2023/04/27 02:40:07;;;;;;;12.40;7.38;;;5.50;99.90;;;;;;5077844;28;20035;-77
2023/04/27 02:42:33;;;;;;;11.88;6.97;;;4.80;99.90;;;;;;5074283;28;20035;-79
2023/04/27 02:44:58;;;;;;;11.52;6.88;;;5.00;99.90;;;;;;5109239;28;20054;-78
2023/04/27 02:47:24;;;;;;;9.85;6.75;;;5.10;99.90;;;;;;5101397;28;20035;-79
2023/04/27 02:49:50;;;;;;;11.63;6.70;;;4.90;99.90;;;;;;5091061;28;20085;-74
2023/04/27 02:52:15;;;;;;;11.85;7.18;;;4.90;99.90;;;;;;5107236;28;20046;-78
2023/04/27 02:54:41;;;;;;;9.95;7.18;;;4.50;99.90;;;;;;5091326;28;20067;-75
2023/04/27 02:57:07;;;;;;;12.20;6.88;;;4.50;99.90;;;;;;5077577;28;20039;-77
2023/04/27 02:59:32;;;;;;;12.25;8.10;;;4.80;99.90;;;;;;5085810;28;20036;-77
2023/04/27 03:01:58;;;;;;;11.73;7.30;;;4.80;99.90;;;;;;5083151;28;20135;-81
2023/04/27 03:04:24;;;;;;;11.90;7.45;;;4.50;99.90;;;;;;5092236;28;20066;-76
2023/04/27 03:06:49;;;;;;;12.70;8.15;;;4.40;99.90;;;;;;5088742;28;20055;-75
2023/04/27 03:09:15;;;;;;;12.98;8.50;;;4.60;99.90;;;;;;5103562;28;20055;-76
2023/04/27 03:11:41;;;;;;;12.30;8.80;;;4.80;99.90;;;;;;5099420;28;20043;-76
2023/04/27 03:14:07;;;;;;;14.30;8.45;;;4.40;99.90;;;;;;5062193;28;20055;-79
2023/04/27 03:16:33;;;;;;;12.93;8.20;;;4.70;99.90;;;;;;5122563;27;20047;-75
2023/04/27 03:18:59;;;;;;;12.77;8.52;;;4.60;99.90;;;;;;5085578;28;20587;-79
2023/04/27 03:21:25;;;;;;;14.07;8.82;;;4.40;99.90;;;;;;5105456;28;20139;-76
2023/04/27 03:23:51;;;;;;;13.68;9.23;;;4.60;99.90;;;;;;5106255;28;20142;-78
2023/04/27 03:26:17;;;;;;;11.25;8.00;;;4.30;99.90;;;;;;5103983;28;20036;-76
2023/04/27 03:28:43;;;;;;;13.02;8.48;;;4.60;99.90;;;;;;5086613;28;20089;-80
2023/04/27 03:31:12;;;;;;;11.05;7.97;;;4.30;99.90;;;;;;5085291;28;20484;-80
2023/04/27 03:33:38;;;;;;;10.93;7.32;;;5.30;99.90;;;;;;5089234;28;20092;-83
2023/04/27 03:36:05;;;;;;;10.43;7.35;;;4.60;99.90;;;;;;5072877;28;20070;-77
2023/04/27 03:38:31;;;;;;;12.95;8.25;;;4.30;99.90;;;;;;5100932;28;20044;-77
2023/04/27 03:40:57;;;;;;;12.82;8.43;;;4.40;99.90;;;;;;5066945;28;20073;-74
2023/04/27 03:43:24;;;;;;;12.52;7.20;;;4.10;99.90;;;;;;5087908;28;20070;-80
2023/04/27 03:45:49;;;;;;;11.07;7.07;;;4.20;99.90;;;;;;5090092;28;20039;-80
2023/04/27 03:48:16;;;;;;;11.27;7.13;;;4.10;99.90;;;;;;5104629;28;20096;-77
2023/04/27 03:50:42;;;;;;;13.55;8.20;;;4.40;99.90;;;;;;5083949;27;20039;-78
2023/04/27 03:53:08;;;;;;;9.55;6.97;;;4.10;99.90;;;;;;5078775;28;20051;-76
2023/04/27 03:55:37;;;;;;;11.40;7.38;;;4.30;99.90;;;;;;5086452;28;20051;-77
2023/04/27 03:58:03;;;;;;;13.40;7.93;;;4.50;99.90;;;;;;5107603;28;20388;-77
2023/04/27 04:00:29;;;;;;;10.88;7.93;;;4.60;99.90;;;;;;5080792;28;20036;-81
2023/04/27 04:02:55;;;;;;;11.23;6.82;;;4.20;99.90;;;;;;5071609;28;20365;-79
2023/04/27 04:05:20;;;;;;;12.63;6.95;;;4.30;99.90;;;;;;5089679;28;20051;-76
2023/04/27 04:07:46;;;;;;;10.07;6.85;;;4.50;99.90;;;;;;5122572;27;20377;-78
2023/04/27 04:10:12;;;;;;;9.95;6.43;;;4.70;99.90;;;;;;5072158;28;20038;-76
2023/04/27 04:12:37;;;;;;;12.88;7.03;;;4.80;99.90;;;;;;5098585;28;20063;-76
2023/04/27 04:15:04;;;;;;;10.93;7.72;;;4.70;99.90;;;;;;5090882;28;20061;-74
2023/04/27 04:17:29;;;;;;;11.25;6.82;;;4.70;99.90;;;;;;5103761;27;20043;-75
2023/04/27 04:19:55;;;;;;;10.68;7.10;;;4.50;99.90;;;;;;5100679;27;20040;-77
2023/04/27 04:22:21;;;;;;;11.43;6.78;;;4.50;99.90;;;;;;5098656;28;20130;-75
2023/04/27 04:24:47;;;;;;;10.75;7.50;;;4.60;99.90;;;;;;5084122;28;20047;-76
2023/04/27 04:27:12;;;;;;;11.27;6.63;;;5.10;99.90;;;;;;5085099;28;20737;-74
2023/04/27 04:29:39;;;;;;;10.40;7.20;;;4.40;99.90;;;;;;5071005;28;20377;-76
2023/04/27 04:32:06;;;;;;;14.88;7.65;;;4.90;99.90;;;;;;5079569;28;20050;-77
2023/04/27 04:34:33;;;;;;;12.50;7.57;;;4.50;99.90;;;;;;5096545;28;20541;-78
2023/04/27 04:36:58;;;;;;;11.82;6.78;;;4.50;99.90;;;;;;5080927;28;20054;-79
2023/04/27 04:39:26;;;;;;;11.13;7.15;;;4.50;99.90;;;;;;5091568;28;20423;-74
2023/04/27 04:41:51;;;;;;;11.75;7.03;;;4.90;99.90;;;;;;5071158;28;20202;-76
2023/04/27 04:44:19;;;;;;;11.43;7.55;;;5.00;99.90;;;;;;5120280;27;20126;-75
2023/04/27 04:46:45;;;;;;;11.50;7.72;;;4.60;99.90;;;;;;5057532;28;20048;-74
2023/04/27 04:49:11;;;;;;;11.18;7.40;;;5.10;99.90;;;;;;5052708;28;20036;-77
2023/04/27 04:51:44;;;;;;;8.30;6.30;;;4.90;99.90;;;;;;5084707;28;20066;-75
2023/04/27 04:54:10;;;;;;;12.00;7.13;;;5.10;99.90;;;;;;5110011;27;20048;-79
2023/04/27 04:56:36;;;;;;;11.13;7.40;;;4.90;99.90;;;;;;5060784;28;20093;-79
2023/04/27 04:59:02;;;;;;;12.50;7.30;;;5.20;99.90;;;;;;5077576;28;20071;-77
2023/04/27 05:01:28;;;;;;;13.73;8.27;;;5.90;99.90;;;;;;5060040;28;20616;-75
2023/04/27 05:03:54;;;;;;;13.98;7.85;;;5.40;99.90;;;;;;5106485;27;20110;-77
2023/04/27 05:06:20;;;;;;;12.77;7.90;;;5.10;99.90;;;;;;5091679;28;20038;-80
2023/04/27 05:08:46;;;;;;;11.13;7.53;;;5.20;99.90;;;;;;5108296;27;20039;-79
2023/04/27 05:11:11;;;;;;;13.88;8.50;;;5.50;99.90;;;;;;5055083;28;20074;-80
2023/04/27 05:13:37;;;;;;;10.88;6.82;;;5.10;99.90;;;;;;5093934;28;20039;-76
2023/04/27 05:16:04;;;;;;;9.93;7.32;;;5.20;99.90;;;;;;5092246;28;20039;-75
2023/04/27 05:18:31;;;;;;;11.52;7.50;;;5.60;99.90;;;;;;5092402;28;20130;-73
2023/04/27 05:20:56;;;;;;;16.88;7.95;;;5.60;99.90;;;;;;5111844;27;20122;-76
2023/04/27 05:23:22;;;;;;;12.05;7.75;;;5.60;99.90;;;;;;5083101;28;20672;-78
2023/04/27 05:25:48;;;;;;;11.73;7.53;;;5.60;99.90;;;;;;5101629;28;20457;-77
2023/04/27 05:28:14;;;;;;;10.63;7.15;;;5.40;99.90;;;;;;5097703;28;20066;-75
2023/04/27 05:30:40;;;;;;;8.85;7.03;;;5.50;99.90;;;;;;5054889;28;20038;-75
2023/04/27 05:33:05;;;;;;;10.85;6.78;;;5.50;99.90;;;;;;5067290;28;20442;-75
2023/04/27 05:35:32;;;;;;;9.85;6.18;;;5.70;99.90;;;;;;5084994;28;20108;-77
2023/04/27 05:37:58;;;;;;;9.05;6.45;;;5.70;99.90;;;;;;5081054;28;20130;-75
2023/04/27 05:40:24;;;;;;;9.80;6.25;;;6.20;99.90;;;;;;5067169;28;20043;-73
2023/04/27 05:42:49;;;;;;;10.80;7.10;;;5.80;99.90;;;;;;5099176;28;20096;-72
2023/04/27 05:45:15;;;;;;;8.55;5.68;;;6.30;99.90;;;;;;5089204;28;20043;-80
2023/04/27 05:47:41;;;;;;;12.27;6.32;;;6.00;99.90;;;;;;5066200;28;20925;-74
2023/04/27 05:50:07;;;;;;;7.60;5.72;;;6.30;99.90;;;;;;5084285;28;20043;-80
2023/04/27 05:52:33;;;;;;;8.23;5.65;;;6.10;99.90;;;;;;5101764;28;20085;-78
2023/04/27 05:54:59;;;;;;;9.35;5.70;;;6.40;99.90;;;;;;5101993;28;20043;-76
2023/04/27 05:57:25;;;;;;;10.02;6.03;;;6.50;99.90;;;;;;5086827;28;20422;-74
2023/04/27 05:59:51;;;;;;;10.60;5.18;;;6.60;99.90;;;;;;5083577;28;20047;-77
2023/04/27 06:02:18;;;;;;;8.30;5.55;;;6.40;99.90;;;;;;5084933;28;20067;-78
2023/04/27 06:04:45;;;;;;;8.57;5.70;;;6.50;99.90;;;;;;5086349;28;21779;-73
2023/04/27 06:07:12;;;;;;;5.93;4.55;;;7.10;99.90;;;;;;5070700;28;20131;-76
2023/04/27 06:09:38;;;;;;;8.55;5.15;;;7.20;99.90;;;;;;5087449;28;20035;-75
2023/04/27 06:12:05;;;;;;;7.60;4.70;;;7.20;99.90;;;;;;5092297;28;20043;-75
2023/04/27 06:14:33;;;;;;;9.30;5.03;;;6.90;99.90;;;;;;5076723;28;20056;-77
2023/04/27 06:17:02;;;;;;;7.25;4.97;;;6.90;99.90;;;;;;5073590;28;20129;-77
2023/04/27 06:19:28;;;;;;;9.43;5.38;;;7.20;99.90;;;;;;5092200;28;20108;-75
2023/04/27 06:21:54;;;;;;;9.60;5.20;;;7.20;99.90;;;;;;5081584;28;20035;-76
2023/04/27 06:24:21;;;;;;;6.85;4.90;;;7.40;99.90;;;;;;5093448;28;20144;-79
2023/04/27 06:26:50;;;;;;;7.20;4.68;;;7.40;99.90;;;;;;5081057;28;20119;-79
2023/04/27 06:29:16;;;;;;;7.15;4.75;;;8.00;99.90;;;;;;5100015;28;20032;-75
2023/04/27 06:31:41;;;;;;;6.70;5.20;;;7.80;99.90;;;;;;5081793;28;20067;-77
2023/04/27 06:34:07;;;;;;;7.40;4.57;;;8.10;99.90;;;;;;5083958;28;21944;-76
2023/04/27 06:36:33;;;;;;;6.60;4.60;;;8.00;99.90;;;;;;5084909;28;20044;-78
2023/04/27 06:38:59;;;;;;;5.35;4.40;;;8.40;99.90;;;;;;5068483;28;20040;-76
2023/04/27 06:41:26;;;;;;;6.63;4.70;;;8.50;99.90;;;;;;5085806;28;20051;-76
2023/04/27 06:43:52;;;;;;;7.45;4.22;;;8.60;99.90;;;;;;5090849;28;20036;-79
2023/04/27 06:46:19;;;;;;;5.93;3.60;;;9.10;99.90;;;;;;5089379;28;20124;-78
2023/04/27 06:48:45;;;;;;;5.90;4.07;;;9.20;99.90;;;;;;5077694;28;20051;-75
2023/04/27 06:51:11;;;;;;;7.68;3.75;;;9.40;99.90;;;;;;5074667;27;20050;-74
2023/04/27 06:53:38;;;;;;;9.63;3.60;;;9.70;99.90;;;;;;5082595;27;20043;-77
2023/04/27 06:56:04;;;;;;;4.15;3.22;;;9.50;99.90;;;;;;5092320;28;20039;-77
2023/04/27 06:58:30;;;;;;;4.47;3.10;;;9.70;99.90;;;;;;5073086;28;20043;-74
2023/04/27 07:00:56;;;;;;;6.15;3.13;;;10.00;99.90;;;;;;5112654;27;20078;-76
2023/04/27 07:03:22;;;;;;;5.53;3.20;;;10.00;99.90;;;;;;5082847;28;20088;-77
2023/04/27 07:05:47;;;;;;;5.00;2.90;;;10.20;99.90;;;;;;5097265;27;20109;-80
2023/04/27 07:08:13;;;;;;;6.40;3.17;;;10.20;99.90;;;;;;5072118;28;20036;-79
2023/04/27 07:10:39;;;;;;;5.78;2.90;;;10.50;99.90;;;;;;5066252;28;20174;-78
2023/04/27 07:13:05;;;;;;;4.05;3.15;;;10.60;99.90;;;;;;5072045;28;20468;-78
2023/04/27 07:15:31;;;;;;;3.78;2.83;;;10.50;99.90;;;;;;5066321;28;20062;-77
2023/04/27 07:17:56;;;;;;;4.93;2.55;;;10.80;99.90;;;;;;5090341;28;20058;-78
2023/04/27 07:20:23;;;;;;;5.05;2.70;;;10.90;99.90;;;;;;5090716;28;20047;-81
2023/04/27 07:22:48;;;;;;;3.10;2.50;;;10.90;99.90;;;;;;5064585;28;20039;-76
2023/04/27 07:25:18;;;;;;;4.40;2.63;;;10.90;99.90;;;;;;5077448;28;20052;-84
2023/04/27 07:27:44;;;;;;;3.65;2.45;;;11.20;99.90;;;;;;5043959;28;20040;-78
2023/04/27 07:30:12;;;;;;;3.67;2.10;;;11.40;99.90;;;;;;5065406;28;20040;-80
2023/04/27 07:32:40;;;;;;;4.80;2.45;;;11.20;99.90;;;;;;5082272;28;20032;-77
2023/04/27 07:35:07;;;;;;;3.15;2.22;;;11.50;99.90;;;;;;5046561;28;20035;-77
2023/04/27 07:37:34;;;;;;;3.10;2.30;;;11.60;99.90;;;;;;5115911;27;20035;-79
2023/04/27 07:40:01;;;;;;;3.97;2.10;;;11.70;99.90;;;;;;5071445;28;20051;-82
2023/04/27 07:42:26;;;;;;;3.33;1.90;;;11.70;99.90;;;;;;5063766;28;20044;-77
2023/04/27 07:44:53;;;;;;;2.85;2.10;;;11.70;99.90;;;;;;5071318;28;20036;-80
2023/04/27 07:47:18;;;;;;;5.35;2.53;;;11.70;99.90;;;;;;5083865;28;20626;-82
2023/04/27 07:49:47;;;;;;;3.22;1.92;;;11.70;99.90;;;;;;5087989;28;20139;-83
2023/04/27 07:52:13;;;;;;;3.67;2.10;;;11.80;99.90;;;;;;5049976;28;20767;-80
2023/04/27 07:54:39;;;;;;;5.38;2.25;;;11.80;99.90;;;;;;5104689;28;20078;-79
2023/04/27 07:57:10;;;;;;;4.32;2.10;;;12.00;99.90;;;;;;5079020;28;20048;-79
2023/04/27 07:59:36;;;;;;;3.30;2.35;;;12.10;89.00;;;;;;5063265;28;20044;-78
2023/04/27 08:02:03;;;;;;;2.80;1.98;;;12.20;68.90;;;;;;5069597;28;20085;-83
2023/04/27 08:04:28;;;;;;;4.38;1.98;;;12.20;99.50;;;;;;5071246;28;20043;-81
2023/04/27 08:06:54;;;;;;;2.88;2.20;;;12.40;99.90;;;;;;5067432;28;20035;-77
2023/04/27 08:09:20;;;;;;;2.72;1.80;;;12.40;99.90;;;;;;5047818;28;20120;-79
2023/04/27 08:11:45;;;;;;;3.13;1.85;;;12.30;25.80;;;;;;5055574;28;20029;-78
2023/04/27 08:14:14;;;;;;;3.90;2.00;;;12.40;14.20;;;;;;5053227;28;20039;-77
2023/04/27 08:16:41;;;;;;;3.92;1.98;;;12.40;29.20;;;;;;5047107;28;20353;-80
2023/04/27 08:19:08;;;;;;;2.53;2.00;;;12.50;84.50;;;;;;5065766;28;20131;-77
2023/04/27 08:21:35;;;;;;;3.03;2.00;;;12.60;15.70;;;;;;5065789;28;20168;-81
2023/04/27 08:24:01;;;;;;;3.55;2.20;;;12.60;12.20;;;;;;5067773;28;20151;-77
2023/04/27 08:26:27;;;;;;;3.03;2.10;;;12.60;1.00;;;;;;5066006;28;20195;-75
2023/04/27 08:28:56;;;;;;;4.55;2.60;;;12.80;1.00;;;;;;5080581;28;20631;-81
2023/04/27 08:31:23;;;;;;;2.75;1.70;;;12.90;1.00;;;;;;5067003;28;20123;-77
2023/04/27 08:33:50;;;;;;;3.72;2.40;;;12.90;1.00;;;;;;5081644;28;20076;-81
2023/04/27 08:36:15;;;;;;;3.92;2.03;;;13.30;13.80;;;;;;5069265;28;20517;-83
2023/04/27 08:38:41;;;;;;;3.80;2.35;;;13.40;1.00;;;;;;5047216;28;20041;-78
2023/04/27 08:41:07;;;;;;;5.53;2.20;;;13.70;1.00;;;;;;5052356;28;20043;-81
2023/04/27 08:43:34;;;;;;;2.75;2.00;;;13.60;1.00;;;;;;5061409;28;20051;-80
2023/04/27 08:46:01;;;;;;;4.40;2.72;;;13.40;1.00;;;;;;5062488;28;20037;-82
2023/04/27 08:48:27;;;;;;;3.85;2.17;;;13.80;1.00;;;;;;5060272;28;21542;-80
2023/04/27 08:50:54;;;;;;;3.05;2.03;;;13.70;1.00;;;;;;5072592;28;20036;-80
2023/04/27 08:53:21;;;;;;;2.95;2.28;;;13.60;1.00;;;;;;5078980;28;20058;-78
2023/04/27 08:55:48;;;;;;;4.28;2.67;;;13.60;1.00;;;;;;5065525;28;20800;-79
2023/04/27 08:58:13;;;;;;;3.45;2.42;;;13.60;1.00;;;;;;5053769;28;20054;-78
2023/04/27 09:00:41;;;;;;;2.45;2.15;;;13.80;1.00;;;;;;5062007;28;20040;-78
2023/04/27 09:03:23;;;;;;;4.90;2.60;;;14.00;1.00;;;;;;5050601;28;20507;-76
2023/04/27 09:05:50;;;;;;;3.72;2.13;;;14.00;1.00;;;;;;5056069;28;20048;-78
2023/04/27 09:08:16;;;;;;;2.50;2.10;;;14.10;1.00;;;;;;5061138;28;20028;-81
2023/04/27 09:10:49;;;;;;;5.03;2.97;;;14.40;1.00;;;;;;5083198;28;20172;-80
2023/04/27 09:13:16;;;;;;;2.97;2.28;;;14.00;1.00;;;;;;5081041;28;20111;-80
2023/04/27 09:15:47;;;;;;;2.88;2.40;;;13.80;1.00;;;;;;5082615;28;20096;-83
2023/04/27 09:18:21;;;;;;;3.78;2.03;;;13.80;1.00;;;;;;5079483;28;20056;-78
2023/04/27 09:20:51;;;;;;;6.22;3.08;;;13.60;1.00;;;;;;5076306;28;20056;-80
2023/04/27 09:23:32;;;;;;;4.25;2.67;;;14.00;1.00;;;;;;5060347;28;20039;-80
2023/04/27 09:26:07;;;;;;;3.13;2.70;;;14.00;1.00;;;;;;5064988;28;20072;-80
2023/04/27 09:28:34;;;;;;;3.92;2.50;;;14.40;1.00;;;;;;5064483;28;20130;-81
2023/04/27 09:31:03;;;;;;;5.10;2.70;;;14.50;1.00;;;;;;5076840;28;20044;-81
2023/04/27 09:33:31;;;;;;;4.97;2.80;;;14.70;1.00;;;;;;5082431;28;20048;-81
2023/04/27 09:35:58;;;;;;;5.15;3.25;;;14.90;1.00;;;;;;5082260;28;20061;-78
2023/04/27 09:38:25;;;;;;;5.32;3.10;;;14.80;1.00;;;;;;5066977;28;20049;-81
2023/04/27 09:40:52;;;;;;;4.72;3.20;;;14.80;1.00;;;;;;5090663;28;20070;-80
2023/04/27 09:43:18;;;;;;;3.67;2.80;;;14.90;99.90;;;;;;5050571;28;20084;-78
2023/04/27 09:45:45;;;;;;;7.47;3.35;;;15.10;99.90;;;;;;5093663;28;20079;-80
2023/04/27 09:48:12;;;;;;;3.33;2.67;;;15.30;1.00;;;;;;5078882;28;20046;-79
2023/04/27 09:50:40;;;;;;;5.30;3.00;;;15.30;1.00;;;;;;5091260;28;20078;-84
2023/04/27 09:53:11;;;;;;;3.15;2.63;;;15.30;99.90;;;;;;5065546;28;20071;-79
2023/04/27 09:55:42;;;;;;;4.53;2.30;;;15.10;99.90;;;;;;5093832;28;20040;-81
2023/04/27 09:58:30;;;;;;;4.65;2.58;;;14.90;99.90;;;;;;5090565;28;20043;-79
2023/04/27 10:01:17;;;;;;;3.95;2.65;;;14.80;99.90;;;;;;5057543;28;20126;-81
2023/04/27 10:04:12;;;;;;;7.70;4.10;;;15.10;99.90;;;;;;5058595;28;20035;-80
2023/04/27 10:06:58;;;;;;;3.85;2.80;;;15.00;99.90;;;;;;5098743;28;20039;-86
2023/04/27 10:09:24;;;;;;;4.63;3.00;;;15.10;99.90;;;;;;5097825;28;20035;-80
2023/04/27 10:11:54;;;;;;;3.63;2.35;;;14.90;99.90;;;;;;5083241;28;20130;-82
2023/04/27 10:14:23;;;;;;;4.97;3.45;;;15.10;99.90;;;;;;5077607;28;20543;-78
2023/04/27 10:16:54;;;;;;;6.43;3.53;;;14.90;99.90;;;;;;5068215;28;20047;-80
2023/04/27 10:19:21;;;;;;;5.05;3.55;;;14.80;99.90;;;;;;5079464;28;20044;-80
2023/04/27 10:22:07;;;;;;;4.78;4.07;;;14.60;99.90;;;;;;5095454;28;20035;-80
2023/04/27 10:24:36;;;;;;;4.68;3.30;;;14.40;99.90;;;;;;5059684;28;20044;-80
2023/04/27 10:27:06;;;;;;;6.35;3.33;;;14.30;99.90;;;;;;5075731;28;20039;-79
2023/04/27 10:29:43;;;;;;;5.88;3.88;;;14.20;1.00;;;;;;5090937;28;20107;-80
2023/04/27 10:32:24;;;;;;;14.23;3.85;;;14.30;99.90;;;;;;5045468;28;20496;-83
2023/04/27 10:35:00;;;;;;;7.57;3.70;;;14.30;99.90;;;;;;5047961;28;20042;-79
2023/04/27 10:37:38;;;;;;;6.10;3.80;;;14.10;99.90;;;;;;5068104;28;20089;-84
2023/04/27 10:40:13;;;;;;;4.18;3.58;;;13.60;99.90;;;;;;5042767;28;20067;-79
2023/04/27 10:42:40;;;;;;;4.35;3.92;;;13.50;1.00;;;;;;5057686;28;20040;-82
2023/04/27 10:45:06;;;;;;;5.43;3.88;;;13.50;1.00;;;;;;5092773;28;20045;-80
2023/04/27 10:47:41;;;;;;;5.97;4.03;;;13.50;1.00;;;;;;5048629;28;20047;-80
2023/04/27 10:50:14;;;;;;;5.90;3.90;;;13.40;99.90;;;;;;5057134;28;20127;-79
2023/04/27 10:52:47;;;;;;;6.60;4.13;;;13.80;1.00;;;;;;5091799;28;20054;-78
2023/04/27 10:55:17;;;;;;;4.90;3.80;;;13.70;99.90;;;;;;5092130;28;20929;-77
2023/04/27 10:57:52;;;;;;;5.95;3.83;;;13.80;1.00;;;;;;5051579;28;20043;-80
2023/04/27 11:00:43;;;;;;;5.90;3.60;;;14.10;99.90;;;;;;5051134;28;20043;-81
2023/04/27 11:03:24;;;;;;;6.07;3.70;;;14.10;99.90;;;;;;5082317;28;20045;-77
2023/04/27 11:06:04;;;;;;;5.10;3.92;;;14.40;99.90;;;;;;5050463;28;20063;-82
2023/04/27 11:08:31;;;;;;;4.65;3.47;;;14.70;99.90;;;;;;5045462;28;20627;-79
2023/04/27 11:11:00;;;;;;;5.25;4.10;;;15.00;99.90;;;;;;5050921;28;20091;-79
2023/04/27 11:13:27;;;;;;;6.93;4.03;;;14.80;99.90;;;;;;5084476;28;20583;-79
2023/04/27 11:15:57;;;;;;;7.78;4.05;;;15.00;99.90;;;;;;5085468;28;20044;-77
2023/04/27 11:18:30;;;;;;;4.82;4.00;;;14.40;99.90;;;;;;5050044;28;20040;-77
2023/04/27 11:21:11;;;;;;;5.75;4.05;;;14.30;99.90;;;;;;5100702;28;20048;-78
2023/04/27 11:23:37;;;;;;;5.07;3.90;;;14.30;99.90;;;;;;5055280;28;20052;-76
2023/04/27 11:26:17;;;;;;;5.80;3.95;;;14.60;99.90;;;;;;5068618;28;20044;-77
2023/04/27 11:28:45;;;;;;;5.65;3.90;;;14.80;99.90;;;;;;5082278;28;20032;-77
2023/04/27 11:31:11;;;;;;;4.72;3.88;;;15.10;99.90;;;;;;5086671;28;20040;-76
2023/04/27 11:33:38;;;;;;;5.85;4.22;;;15.00;99.90;;;;;;5067193;28;20112;-77
2023/04/27 11:36:16;;;;;;;8.80;4.18;;;14.10;99.90;;;;;;5086283;28;20714;-75
2023/04/27 11:38:41;;;;;;;4.70;4.05;;;13.80;99.90;;;;;;5072997;28;20047;-77
2023/04/27 11:41:07;;;;;;;5.10;4.32;;;13.90;99.90;;;;;;5072352;28;20412;-76
2023/04/27 11:43:34;;;;;;;7.40;4.07;;;14.00;99.90;;;;;;5055874;28;20538;-76
2023/04/27 11:46:03;;;;;;;8.23;3.97;;;13.80;99.90;;;;;;5085799;28;20067;-79
2023/04/27 11:48:29;;;;;;;7.57;4.40;;;14.20;99.90;;;;;;5089603;28;20512;-75
2023/04/27 11:50:58;;;;;;;6.90;4.30;;;14.20;99.90;;;;;;5072630;28;20050;-79
2023/04/27 11:53:32;;;;;;;6.22;4.10;;;14.20;99.90;;;;;;5089180;28;20051;-76
2023/04/27 11:56:03;;;;;;;5.93;4.32;;;14.10;99.90;;;;;;5072163;28;20416;-77
2023/04/27 11:58:32;;;;;;;5.43;4.07;;;13.90;99.90;;;;;;5055662;28;20044;-81
2023/04/27 12:00:58;;;;;;;5.32;4.10;;;13.90;99.90;;;;;;5072911;28;20131;-78
2023/04/27 12:03:24;;;;;;;7.32;4.47;;;13.70;99.90;;;;;;5072709;28;20123;-76
2023/04/27 12:05:51;;;;;;;5.53;4.07;;;13.50;99.90;;;;;;5039986;28;20032;-77
2023/04/27 12:08:17;;;;;;;5.35;3.92;;;13.50;99.90;;;;;;5082746;28;20434;-76
2023/04/27 12:10:44;;;;;;;7.70;4.50;;;13.30;99.90;;;;;;5087446;28;20067;-80
2023/04/27 12:13:11;;;;;;;5.57;4.20;;;13.00;99.90;;;;;;5087122;28;20060;-76
2023/04/27 12:15:40;;;;;;;4.97;3.72;;;12.90;1.00;;;;;;5072421;28;20048;-77
2023/04/27 12:18:06;;;;;;;14.63;4.90;;;12.60;1.00;;;;;;5105675;27;20206;-77
2023/04/27 12:20:33;;;;;;;8.18;4.47;;;12.40;1.00;;;;;;5071625;28;20032;-78
2023/04/27 12:23:01;;;;;;;6.03;4.25;;;12.40;1.00;;;;;;5089209;28;20060;-77
2023/04/27 12:25:27;;;;;;;4.13;3.72;;;12.20;63.80;;;;;;5093629;28;20048;-76
2023/04/27 12:27:56;;;;;;;6.38;3.88;;;12.20;96.60;;;;;;5106675;28;20118;-76
2023/04/27 12:30:22;;;;;;;5.75;3.80;;;12.10;99.90;;;;;;5091919;28;20519;-77
2023/04/27 12:32:48;;;;;;;6.43;3.47;;;12.30;99.90;;;;;;5092930;28;20135;-75
2023/04/27 12:35:17;;;;;;;6.65;3.85;;;12.40;99.90;;;;;;5076816;28;20077;-78
2023/04/27 12:37:42;;;;;;;7.13;3.88;;;12.50;99.90;;;;;;5070255;28;20043;-76
2023/04/27 12:40:08;;;;;;;5.25;4.10;;;12.70;99.90;;;;;;5096355;28;20065;-78
2023/04/27 12:42:34;;;;;;;4.97;3.80;;;12.80;99.90;;;;;;5121442;27;20040;-75
2023/04/27 12:45:00;;;;;;;7.95;4.15;;;13.30;99.90;;;;;;5091147;28;20039;-76
2023/04/27 12:47:26;;;;;;;6.85;3.97;;;13.30;99.90;;;;;;5108282;28;20103;-78
2023/04/27 12:49:52;;;;;;;6.32;3.92;;;13.20;99.90;;;;;;5090813;28;20039;-80
2023/04/27 12:52:18;;;;;;;6.93;4.32;;;13.70;99.90;;;;;;5088769;28;20070;-80